Time;durP1;ratioP1;P1;durP2;ratioP2;P2;SDS_P1;SDS_P2;PMS_P1;PMS_P2;Temp;Humidity;BMP_temperature;BMP_pressure;BME280_temperature;BME280_humidity;BME280_pressure;Samples;Min_cycle;Max_cycle;Signal;HPM_P1;HPM_P2
2022/01/27 00:00:49;;;;;;;0.70;0.70;;;-1.20;91.00;;;;;;5056077;28;20627;-69
2022/01/27 00:03:36;;;;;;;0.50;0.50;;;-1.20;90.90;;;;;;5055932;28;20646;-68
2022/01/27 00:06:07;;;;;;;0.43;0.43;;;-1.20;90.80;;;;;;5055675;28;20167;-69
2022/01/27 00:11:09;;;;;;;0.40;0.40;;;-1.20;90.80;;;;;;5055691;28;20204;-69
2022/01/27 00:13:44;;;;;;;0.40;0.40;;;-1.20;90.90;;;;;;5055865;28;20193;-69
2022/01/27 00:16:13;;;;;;;0.50;0.50;;;-1.20;91.10;;;;;;5055443;28;20161;-68
2022/01/27 00:18:41;;;;;;;0.75;0.75;;;-1.20;91.20;;;;;;5055501;28;20218;-68
2022/01/27 00:21:07;;;;;;;0.40;0.40;;;-1.20;91.10;;;;;;5055312;28;20170;-69
2022/01/27 00:23:33;;;;;;;0.50;0.50;;;-1.20;91.00;;;;;;5055256;28;20174;-68
2022/01/27 00:25:59;;;;;;;0.60;0.60;;;-1.20;90.90;;;;;;5055154;28;20257;-68
2022/01/27 00:28:25;;;;;;;0.40;0.40;;;-1.20;90.80;;;;;;5055369;28;20166;-68
2022/01/27 00:30:51;;;;;;;0.50;0.50;;;-1.30;90.70;;;;;;5055190;28;20614;-68
2022/01/27 00:33:16;;;;;;;0.50;0.50;;;-1.20;90.90;;;;;;5055354;28;20401;-69
2022/01/27 00:35:42;;;;;;;0.70;0.70;;;-1.20;91.00;;;;;;5055057;28;20165;-69
2022/01/27 00:38:07;;;;;;;0.40;0.40;;;-1.30;91.00;;;;;;5055056;28;20185;-69
2022/01/27 00:40:33;;;;;;;0.40;0.40;;;-1.30;91.00;;;;;;5054927;28;20187;-68
2022/01/27 00:42:59;;;;;;;0.50;0.50;;;-1.20;91.10;;;;;;5055018;28;20171;-68
2022/01/27 00:45:28;;;;;;;0.40;0.40;;;-1.20;91.00;;;;;;5054856;28;20166;-69
2022/01/27 00:47:53;;;;;;;0.50;0.50;;;-1.20;91.00;;;;;;5054937;28;20177;-69
2022/01/27 00:50:19;;;;;;;0.40;0.40;;;-1.20;90.90;;;;;;5054684;28;20190;-68
2022/01/27 00:52:50;;;;;;;0.40;0.40;;;-1.20;90.80;;;;;;5054672;28;20198;-69
2022/01/27 00:55:17;;;;;;;0.60;0.60;;;-1.20;90.80;;;;;;5054779;28;20403;-69
2022/01/27 01:00:12;;;;;;;0.50;0.50;;;-1.20;90.70;;;;;;5054455;28;20256;-68
2022/01/27 01:02:51;;;;;;;0.50;0.50;;;-1.10;90.80;;;;;;5054661;28;20182;-69
2022/01/27 01:07:46;;;;;;;0.50;0.50;;;-1.10;90.80;;;;;;5054493;28;20261;-69
2022/01/27 01:15:31;;;;;;;0.70;0.70;;;-1.10;90.80;;;;;;5054057;28;20167;-69
2022/01/27 01:36:43;;;;;;;0.52;0.52;;;-1.10;90.70;;;;;;5053289;28;20215;-69
2022/01/27 01:39:08;;;;;;;0.50;0.50;;;-1.00;90.60;;;;;;5053739;28;20190;-69
2022/01/27 01:41:34;;;;;;;0.57;0.57;;;-1.10;90.50;;;;;;5053847;28;20265;-69
2022/01/27 01:44:00;;;;;;;0.50;0.50;;;-1.10;90.40;;;;;;5053973;28;20174;-69
2022/01/27 01:46:26;;;;;;;0.33;0.33;;;-1.10;90.50;;;;;;5053667;28;20701;-69
2022/01/27 01:48:51;;;;;;;0.50;0.50;;;-1.10;90.50;;;;;;5053605;28;20481;-69
2022/01/27 01:51:24;;;;;;;0.40;0.40;;;-1.10;90.90;;;;;;5053665;28;20559;-69
2022/01/27 01:53:49;;;;;;;0.70;0.70;;;-1.10;90.50;;;;;;5053740;28;20177;-69
2022/01/27 01:56:15;;;;;;;0.50;0.50;;;-1.10;90.50;;;;;;5053656;28;20249;-69
2022/01/27 01:58:40;;;;;;;0.50;0.50;;;-1.10;90.40;;;;;;5053515;28;20190;-69
2022/01/27 02:01:06;;;;;;;0.63;0.63;;;-1.10;90.40;;;;;;5053515;28;20261;-69
2022/01/27 02:03:32;;;;;;;0.60;0.60;;;-1.10;90.40;;;;;;5053503;28;20166;-69
2022/01/27 02:05:58;;;;;;;0.50;0.50;;;-1.10;90.40;;;;;;5053329;28;20170;-69
2022/01/27 02:19:14;;;;;;;0.50;0.50;;;-1.20;89.90;;;;;;5053472;28;20756;-68
2022/01/27 02:21:53;;;;;;;0.40;0.40;;;-1.20;89.80;;;;;;5052028;28;20640;-69
2022/01/27 02:24:21;;;;;;;0.40;0.40;;;-1.20;89.40;;;;;;5053564;28;20173;-69
2022/01/27 02:26:49;;;;;;;0.50;0.50;;;-1.20;89.20;;;;;;5053134;28;20162;-69
2022/01/27 02:29:19;;;;;;;0.50;0.50;;;-1.10;89.10;;;;;;5053261;28;20190;-69
2022/01/27 02:31:46;;;;;;;0.60;0.60;;;-1.20;88.80;;;;;;5054425;28;20643;-68
2022/01/27 02:34:13;;;;;;;0.40;0.40;;;-1.20;88.80;;;;;;5057260;28;20166;-68
2022/01/27 02:36:39;;;;;;;0.40;0.40;;;-1.20;89.00;;;;;;5057421;28;20170;-69
2022/01/27 02:39:07;;;;;;;0.50;0.50;;;-1.20;89.00;;;;;;5057128;28;20192;-68
2022/01/27 02:41:45;;;;;;;0.50;0.50;;;-1.20;88.80;;;;;;5057140;28;20230;-69
2022/01/27 02:44:32;;;;;;;0.40;0.40;;;-1.20;88.50;;;;;;5057480;28;20543;-69
2022/01/27 02:46:58;;;;;;;0.40;0.40;;;-1.20;88.90;;;;;;5056957;28;20216;-69
2022/01/27 02:49:24;;;;;;;0.40;0.40;;;-1.20;88.10;;;;;;5057158;28;20198;-68
2022/01/27 02:51:51;;;;;;;0.30;0.30;;;-1.30;87.80;;;;;;5057351;28;20456;-68
2022/01/27 02:54:17;;;;;;;0.40;0.40;;;-1.20;87.60;;;;;;5057212;28;20166;-69
2022/01/27 02:56:47;;;;;;;0.50;0.50;;;-1.20;87.20;;;;;;5056805;28;20533;-68
2022/01/27 02:59:18;;;;;;;0.50;0.50;;;-1.30;86.80;;;;;;5056751;28;20885;-68
2022/01/27 03:01:46;;;;;;;0.50;0.50;;;-1.30;86.70;;;;;;5057071;28;20183;-68
2022/01/27 03:04:12;;;;;;;0.40;0.40;;;-1.40;86.00;;;;;;5056800;28;20162;-68
2022/01/27 03:06:37;;;;;;;0.40;0.40;;;-1.30;86.00;;;;;;5056772;28;20175;-69
2022/01/27 03:09:03;;;;;;;0.40;0.40;;;-1.30;85.70;;;;;;5056674;28;20428;-68
2022/01/27 03:11:51;;;;;;;0.50;0.50;;;-1.30;85.50;;;;;;5056591;28;20456;-69
2022/01/27 03:14:21;;;;;;;0.40;0.40;;;-1.30;85.10;;;;;;5056807;28;20173;-69
2022/01/27 03:16:47;;;;;;;0.55;0.55;;;-1.30;85.00;;;;;;5056624;28;20260;-69
2022/01/27 03:19:14;;;;;;;0.50;0.50;;;-1.30;84.60;;;;;;5056686;28;20197;-68
2022/01/27 03:21:39;;;;;;;0.45;0.45;;;-1.30;84.50;;;;;;5056574;28;20550;-69
2022/01/27 03:24:06;;;;;;;0.60;0.60;;;-1.30;84.60;;;;;;5056678;28;20201;-68
2022/01/27 03:26:31;;;;;;;0.50;0.50;;;-1.30;84.90;;;;;;5056306;28;20542;-68
2022/01/27 03:28:58;;;;;;;0.60;0.60;;;-1.30;85.10;;;;;;5056490;28;20194;-69
2022/01/27 03:31:24;;;;;;;0.55;0.55;;;-1.30;85.00;;;;;;5056298;28;20476;-69
2022/01/27 03:33:50;;;;;;;0.50;0.50;;;-1.40;84.70;;;;;;5056370;28;20537;-69
2022/01/27 03:36:16;;;;;;;0.70;0.70;;;-1.40;84.50;;;;;;5056138;28;20405;-68
2022/01/27 03:38:42;;;;;;;0.50;0.50;;;-1.40;84.10;;;;;;5056306;28;20259;-68
2022/01/27 03:41:09;;;;;;;0.40;0.40;;;-1.30;84.00;;;;;;5056117;28;20224;-69
2022/01/27 03:43:37;;;;;;;0.55;0.55;;;-1.40;83.90;;;;;;5055309;28;20249;-69
2022/01/27 03:46:03;;;;;;;0.40;0.40;;;-1.30;83.60;;;;;;5055827;28;20261;-69
2022/01/27 03:48:29;;;;;;;0.50;0.50;;;-1.30;82.70;;;;;;5056018;28;20166;-69
2022/01/27 03:50:55;;;;;;;0.50;0.50;;;-1.30;82.60;;;;;;5055983;28;20174;-69
2022/01/27 03:53:21;;;;;;;0.60;0.60;;;-1.20;82.50;;;;;;5056050;28;20169;-69
2022/01/27 03:55:47;;;;;;;0.57;0.57;;;-1.20;82.20;;;;;;5055663;28;20181;-69
2022/01/27 03:58:13;;;;;;;0.40;0.40;;;-1.20;82.50;;;;;;5055819;28;20162;-68
2022/01/27 04:00:39;;;;;;;0.60;0.60;;;-1.30;82.00;;;;;;5055572;28;20256;-69
2022/01/27 04:03:08;;;;;;;0.50;0.50;;;-1.30;81.20;;;;;;5055818;28;20169;-69
2022/01/27 04:05:38;;;;;;;0.50;0.50;;;-1.30;81.30;;;;;;5055731;28;20404;-69
2022/01/27 04:08:09;;;;;;;0.45;0.45;;;-1.30;81.30;;;;;;5055744;28;20171;-69
2022/01/27 04:10:35;;;;;;;0.50;0.50;;;-1.30;81.80;;;;;;5055599;28;20201;-68
2022/01/27 04:13:02;;;;;;;0.50;0.50;;;-1.40;82.10;;;;;;5055811;28;20213;-68
2022/01/27 04:15:28;;;;;;;0.55;0.55;;;-1.50;82.10;;;;;;5054050;28;20179;-69
2022/01/27 04:17:54;;;;;;;0.50;0.50;;;-1.50;82.20;;;;;;5055679;28;20170;-68
2022/01/27 04:20:20;;;;;;;0.40;0.40;;;-1.60;82.20;;;;;;5055323;28;20277;-69
2022/01/27 04:22:46;;;;;;;0.60;0.60;;;-1.60;83.00;;;;;;5054234;28;20265;-68
2022/01/27 04:25:13;;;;;;;0.70;0.70;;;-1.70;82.30;;;;;;5055483;28;20270;-69
2022/01/27 04:27:44;;;;;;;0.40;0.40;;;-1.70;81.70;;;;;;5055166;28;20407;-69
2022/01/27 04:30:19;;;;;;;0.52;0.52;;;-1.70;81.30;;;;;;5055157;28;20247;-69
2022/01/27 04:32:50;;;;;;;0.55;0.55;;;-1.60;81.30;;;;;;5055188;28;20663;-69
2022/01/27 04:35:19;;;;;;;0.50;0.50;;;-1.60;81.10;;;;;;5055290;28;20205;-69
2022/01/27 04:38:16;;;;;;;0.70;0.70;;;-1.50;80.90;;;;;;5054959;28;20253;-68
2022/01/27 04:43:38;;;;;;;0.47;0.47;;;-1.70;82.00;;;;;;5055119;28;20177;-68
2022/01/27 04:46:22;;;;;;;0.60;0.60;;;-1.70;82.00;;;;;;5054985;28;20193;-68
2022/01/27 04:48:53;;;;;;;0.50;0.50;;;-1.70;81.80;;;;;;5054597;28;20173;-68
2022/01/27 04:51:21;;;;;;;0.50;0.50;;;-1.70;80.90;;;;;;5054294;28;20213;-68
2022/01/27 04:54:10;;;;;;;0.60;0.60;;;-1.60;80.50;;;;;;5054913;28;20166;-68
2022/01/27 04:56:38;;;;;;;0.40;0.40;;;-1.50;80.60;;;;;;5054664;28;20235;-68
2022/01/27 04:59:11;;;;;;;0.70;0.70;;;-1.40;80.00;;;;;;5050922;28;20202;-69
2022/01/27 05:01:42;;;;;;;0.60;0.60;;;-1.40;80.20;;;;;;5054817;28;20223;-68
2022/01/27 05:04:15;;;;;;;0.60;0.60;;;-1.40;80.40;;;;;;5054631;28;20174;-68
2022/01/27 05:06:41;;;;;;;0.60;0.60;;;-1.40;80.90;;;;;;5053305;28;20170;-67
2022/01/27 05:09:08;;;;;;;0.40;0.40;;;-1.40;80.60;;;;;;5054972;28;20235;-68
2022/01/27 05:11:44;;;;;;;0.70;0.70;;;-1.30;80.50;;;;;;5053476;28;20651;-69
2022/01/27 05:14:23;;;;;;;0.50;0.50;;;-1.40;80.40;;;;;;5054952;28;20658;-69
2022/01/27 05:16:49;;;;;;;0.40;0.40;;;-1.40;80.40;;;;;;5054312;28;20163;-68
2022/01/27 05:19:15;;;;;;;0.60;0.60;;;-1.30;80.60;;;;;;5053234;28;20182;-68
2022/01/27 05:21:41;;;;;;;0.60;0.60;;;-1.30;80.40;;;;;;5051691;28;20428;-67
2022/01/27 05:32:39;;;;;;;0.60;0.60;;;-1.40;78.40;;;;;;5033250;28;20282;-69
2022/01/27 05:35:06;;;;;;;0.40;0.40;;;-1.50;78.60;;;;;;5035413;28;20214;-69
2022/01/27 05:37:32;;;;;;;0.63;0.63;;;-1.50;79.00;;;;;;5035387;28;20197;-72
2022/01/27 05:39:58;;;;;;;0.60;0.60;;;-1.60;79.00;;;;;;5034763;28;20179;-67
2022/01/27 05:42:24;;;;;;;0.65;0.65;;;-1.50;78.90;;;;;;5032631;28;20265;-68
2022/01/27 05:44:50;;;;;;;0.70;0.70;;;-1.60;78.30;;;;;;5032217;28;20262;-67
2022/01/27 05:47:18;;;;;;;0.50;0.50;;;-1.60;78.10;;;;;;5033416;28;20171;-70
2022/01/27 05:49:43;;;;;;;0.50;0.50;;;-1.50;78.50;;;;;;5032592;28;20945;-69
2022/01/27 05:52:10;;;;;;;0.70;0.70;;;-1.50;78.80;;;;;;5034033;28;20206;-68
2022/01/27 05:54:36;;;;;;;0.70;0.70;;;-1.50;79.00;;;;;;5032559;28;20437;-68
2022/01/27 05:57:02;;;;;;;0.70;0.70;;;-1.50;79.10;;;;;;5033508;28;20660;-70
2022/01/27 05:59:27;;;;;;;0.53;0.53;;;-1.50;79.00;;;;;;5033747;28;20167;-68
2022/01/27 06:01:53;;;;;;;0.50;0.50;;;-1.40;79.00;;;;;;5033717;28;20420;-68
2022/01/27 06:04:19;;;;;;;0.40;0.40;;;-1.50;78.90;;;;;;5032550;28;20293;-69
2022/01/27 06:06:45;;;;;;;0.40;0.40;;;-1.40;78.60;;;;;;5033334;28;20175;-68
2022/01/27 06:09:11;;;;;;;0.50;0.50;;;-1.40;78.10;;;;;;5033226;28;20413;-69
2022/01/27 06:11:37;;;;;;;0.40;0.40;;;-1.50;77.50;;;;;;5032665;28;20201;-70
2022/01/27 06:14:03;;;;;;;0.40;0.40;;;-1.40;77.50;;;;;;5033607;28;20183;-70
2022/01/27 06:16:29;;;;;;;0.40;0.40;;;-1.40;77.40;;;;;;5033201;28;20401;-69
2022/01/27 06:18:55;;;;;;;0.50;0.50;;;-1.30;77.80;;;;;;5033237;28;20171;-70
2022/01/27 06:21:20;;;;;;;0.40;0.40;;;-1.30;77.60;;;;;;5032504;28;20745;-70
2022/01/27 06:23:46;;;;;;;0.60;0.60;;;-1.30;77.20;;;;;;5030622;28;20194;-70
2022/01/27 06:26:12;;;;;;;0.50;0.50;;;-1.30;77.30;;;;;;5031949;28;20210;-69
2022/01/27 06:28:37;;;;;;;0.40;0.40;;;-1.40;77.30;;;;;;5033653;28;20559;-69
2022/01/27 06:31:03;;;;;;;0.60;0.60;;;-1.50;77.70;;;;;;5033308;28;20198;-69
2022/01/27 06:33:29;;;;;;;0.60;0.60;;;-1.60;77.80;;;;;;5033215;28;20260;-69
2022/01/27 06:35:54;;;;;;;0.50;0.50;;;-1.60;78.20;;;;;;5032354;28;20663;-69
2022/01/27 06:38:20;;;;;;;0.50;0.50;;;-1.50;78.40;;;;;;5033509;28;20167;-70
2022/01/27 06:40:46;;;;;;;0.60;0.60;;;-1.50;78.20;;;;;;5033890;28;20167;-71
2022/01/27 06:43:13;;;;;;;0.50;0.50;;;-1.50;78.30;;;;;;5032787;28;20195;-70
2022/01/27 06:45:39;;;;;;;0.60;0.60;;;-1.50;78.00;;;;;;5033318;28;20171;-71
2022/01/27 06:48:05;;;;;;;0.50;0.50;;;-1.50;77.90;;;;;;5033330;28;20515;-68
2022/01/27 06:50:32;;;;;;;0.70;0.70;;;-1.50;77.70;;;;;;5032136;28;20228;-68
2022/01/27 06:52:59;;;;;;;0.40;0.40;;;-1.40;77.80;;;;;;5032847;28;20203;-72
2022/01/27 06:55:25;;;;;;;0.50;0.50;;;-1.40;77.40;;;;;;5033420;28;20530;-69
2022/01/27 06:57:50;;;;;;;0.30;0.30;;;-1.40;77.50;;;;;;5032966;28;20256;-68
2022/01/27 07:00:17;;;;;;;0.40;0.40;;;-1.40;77.50;;;;;;5032714;28;20456;-68
2022/01/27 07:02:43;;;;;;;0.40;0.40;;;-1.40;76.70;;;;;;5032591;28;20195;-67
2022/01/27 07:05:10;;;;;;;0.40;0.40;;;-1.30;76.30;;;;;;5033509;28;20290;-70
2022/01/27 07:07:36;;;;;;;0.40;0.40;;;-1.30;75.50;;;;;;5033449;28;20405;-70
2022/01/27 07:10:02;;;;;;;0.40;0.40;;;-1.30;75.50;;;;;;5032812;28;20179;-69
2022/01/27 07:12:27;;;;;;;0.40;0.40;;;-1.30;76.70;;;;;;5032950;28;20233;-70
2022/01/27 07:14:55;;;;;;;0.50;0.50;;;-1.40;77.60;;;;;;5032877;28;20231;-67
2022/01/27 07:17:21;;;;;;;0.45;0.45;;;-1.40;78.20;;;;;;5033588;28;20175;-70
2022/01/27 07:19:47;;;;;;;0.40;0.40;;;-1.30;78.10;;;;;;5034683;28;20174;-67
2022/01/27 07:22:13;;;;;;;0.67;0.67;;;-1.20;77.90;;;;;;5034973;28;20167;-78
2022/01/27 07:24:38;;;;;;;0.50;0.50;;;-1.20;77.40;;;;;;5035118;28;20253;-67
2022/01/27 07:27:05;;;;;;;0.50;0.50;;;-1.10;77.10;;;;;;5034232;28;20433;-69
2022/01/27 07:29:30;;;;;;;0.80;0.80;;;-1.00;76.40;;;;;;5036556;28;20167;-67
2022/01/27 07:31:56;;;;;;;0.50;0.50;;;-0.90;76.10;;;;;;5035070;28;20207;-69
2022/01/27 07:34:22;;;;;;;0.50;0.50;;;-0.90;75.50;;;;;;5036142;28;20234;-72
2022/01/27 07:36:48;;;;;;;0.40;0.40;;;-0.80;76.00;;;;;;5036135;28;20163;-70
2022/01/27 07:39:15;;;;;;;0.60;0.60;;;-0.70;75.80;;;;;;5036284;28;20167;-70
2022/01/27 07:41:43;;;;;;;0.40;0.40;;;-0.50;75.40;;;;;;5036563;28;20644;-72
2022/01/27 07:44:08;;;;;;;0.40;0.40;;;-0.40;75.20;;;;;;5036283;28;20191;-70
2022/01/27 07:46:34;;;;;;;0.40;0.40;;;-0.20;74.10;;;;;;5035863;28;20257;-69
2022/01/27 07:49:00;;;;;;;0.50;0.50;;;-0.10;72.90;;;;;;5034062;28;20636;-70
2022/01/27 07:51:26;;;;;;;0.40;0.40;;;0.10;71.70;;;;;;5035321;28;20190;-69
2022/01/27 07:53:51;;;;;;;0.30;0.30;;;0.20;70.80;;;;;;5033894;28;20277;-70
2022/01/27 07:56:17;;;;;;;0.30;0.30;;;0.30;69.50;;;;;;5035189;28;20171;-70
2022/01/27 07:58:43;;;;;;;0.50;0.50;;;0.60;70.70;;;;;;5035125;28;20171;-70
2022/01/27 08:01:09;;;;;;;0.30;0.30;;;0.70;70.20;;;;;;5035995;28;20175;-69
2022/01/27 08:03:38;;;;;;;0.40;0.40;;;0.90;70.00;;;;;;5035692;28;20425;-70
2022/01/27 08:06:05;;;;;;;0.40;0.40;;;0.90;69.60;;;;;;5035876;28;20233;-70
2022/01/27 08:08:31;;;;;;;0.40;0.40;;;1.20;69.90;;;;;;5035685;28;20175;-70
2022/01/27 08:10:58;;;;;;;0.40;0.40;;;1.70;68.80;;;;;;5035790;28;20186;-69
2022/01/27 08:13:24;;;;;;;0.40;0.40;;;2.40;66.20;;;;;;5035555;28;20495;-70
2022/01/27 08:15:49;;;;;;;0.40;0.40;;;2.90;63.90;;;;;;5035657;28;20181;-69
2022/01/27 08:18:15;;;;;;;0.30;0.30;;;3.40;62.20;;;;;;5035328;28;20180;-70
2022/01/27 08:20:41;;;;;;;0.30;0.30;;;3.80;62.00;;;;;;5035936;28;20701;-69
2022/01/27 08:23:07;;;;;;;0.40;0.40;;;4.10;59.90;;;;;;5035513;28;20669;-70
2022/01/27 08:25:33;;;;;;;0.30;0.30;;;4.20;58.60;;;;;;5035329;28;20781;-70
2022/01/27 08:28:03;;;;;;;0.30;0.30;;;4.20;58.10;;;;;;5035557;28;20171;-69
2022/01/27 08:30:36;;;;;;;0.40;0.40;;;4.10;57.70;;;;;;5034595;28;20189;-69
2022/01/27 08:33:07;;;;;;;0.30;0.30;;;4.30;57.70;;;;;;5035151;28;20217;-69
2022/01/27 08:35:33;;;;;;;0.30;0.30;;;4.10;56.50;;;;;;5035360;28;20162;-69
2022/01/27 08:37:59;;;;;;;0.40;0.40;;;4.30;57.70;;;;;;5035340;28;20172;-70
2022/01/27 08:40:25;;;;;;;0.40;0.40;;;4.40;57.20;;;;;;5033723;28;20177;-70
2022/01/27 08:42:51;;;;;;;0.30;0.30;;;4.30;57.30;;;;;;5035250;28;20194;-70
2022/01/27 08:45:19;;;;;;;0.30;0.30;;;4.40;57.10;;;;;;5035184;28;20676;-70
2022/01/27 08:47:45;;;;;;;0.38;0.38;;;4.40;57.50;;;;;;5035123;28;20178;-70
2022/01/27 08:50:13;;;;;;;0.30;0.30;;;4.50;57.00;;;;;;5034914;28;20182;-69
2022/01/27 08:52:39;;;;;;;0.30;0.30;;;4.30;56.70;;;;;;5034864;28;20194;-69
2022/01/27 08:55:07;;;;;;;0.40;0.40;;;4.30;56.80;;;;;;5034994;28;20596;-70
2022/01/27 08:57:33;;;;;;;0.30;0.30;;;4.30;57.80;;;;;;5034835;28;20168;-70
2022/01/27 09:00:01;;;;;;;0.40;0.40;;;4.30;57.80;;;;;;5034807;28;20177;-70
2022/01/27 09:02:27;;;;;;;0.30;0.30;;;4.20;58.10;;;;;;5034822;28;20172;-69
2022/01/27 09:04:53;;;;;;;0.40;0.40;;;4.20;58.60;;;;;;5034564;28;20213;-70
2022/01/27 09:07:19;;;;;;;0.30;0.30;;;4.30;58.50;;;;;;5034522;28;20541;-70
2022/01/27 09:09:45;;;;;;;0.30;0.30;;;4.50;58.40;;;;;;5034349;28;20173;-70
2022/01/27 09:12:12;;;;;;;0.30;0.30;;;4.50;58.60;;;;;;5034457;28;20453;-70
2022/01/27 09:14:41;;;;;;;0.32;0.32;;;4.50;57.80;;;;;;5034487;28;20180;-70
2022/01/27 09:17:10;;;;;;;0.30;0.30;;;4.50;57.90;;;;;;5034640;28;20163;-69
2022/01/27 09:19:38;;;;;;;0.30;0.30;;;4.50;57.70;;;;;;5034212;28;20174;-70
2022/01/27 09:22:13;;;;;;;0.40;0.40;;;4.60;57.60;;;;;;5034292;28;20250;-70
2022/01/27 09:24:59;;;;;;;0.40;0.40;;;4.60;56.10;;;;;;5034324;28;20153;-70
2022/01/27 09:27:26;;;;;;;1.13;1.10;;;4.40;57.10;;;;;;5034480;28;20201;-70
2022/01/27 09:29:53;;;;;;;0.30;0.30;;;4.50;55.50;;;;;;5033966;28;20175;-70
2022/01/27 09:32:19;;;;;;;0.40;0.40;;;4.70;55.90;;;;;;5033934;28;20218;-70
2022/01/27 09:34:46;;;;;;;0.40;0.40;;;4.90;54.30;;;;;;5034184;28;20277;-71
2022/01/27 09:37:12;;;;;;;0.40;0.40;;;5.10;54.50;;;;;;5034133;28;20167;-69
2022/01/27 09:39:38;;;;;;;0.30;0.30;;;4.90;54.60;;;;;;5032709;28;20189;-70
2022/01/27 09:42:06;;;;;;;0.30;0.30;;;5.00;55.80;;;;;;5033316;28;20166;-69
2022/01/27 09:44:33;;;;;;;0.30;0.30;;;5.00;55.50;;;;;;5033778;28;20199;-70
2022/01/27 09:47:06;;;;;;;0.40;0.40;;;5.20;55.10;;;;;;5033876;28;20175;-70
2022/01/27 09:52:27;;;;;;;0.40;0.40;;;5.40;53.80;;;;;;4980134;28;20212;-70
2022/01/27 09:54:52;;;;;;;0.40;0.40;;;5.60;53.70;;;;;;5033838;28;20631;-70
2022/01/27 09:57:18;;;;;;;0.40;0.40;;;5.60;52.90;;;;;;5032473;28;20174;-70
2022/01/27 09:59:45;;;;;;;0.30;0.30;;;5.80;53.90;;;;;;5033653;28;20171;-69
2022/01/27 10:02:19;;;;;;;0.40;0.40;;;6.00;53.70;;;;;;5033814;28;20169;-70
2022/01/27 10:04:52;;;;;;;0.40;0.40;;;6.20;53.10;;;;;;5033682;28;20357;-70
2022/01/27 10:07:22;;;;;;;0.40;0.40;;;6.50;50.80;;;;;;5033779;28;20528;-70
2022/01/27 10:09:55;;;;;;;0.40;0.40;;;6.90;50.80;;;;;;5032304;28;20193;-70
2022/01/27 10:12:26;;;;;;;0.40;0.40;;;7.70;51.10;;;;;;5033421;28;20198;-70
2022/01/27 10:15:07;;;;;;;0.60;0.60;;;8.80;50.30;;;;;;5033378;28;20162;-70
2022/01/27 10:17:37;;;;;;;0.30;0.30;;;9.80;47.90;;;;;;5033428;28;20180;-70
2022/01/27 10:20:13;;;;;;;0.35;0.35;;;10.80;43.90;;;;;;5033164;28;20182;-70
2022/01/27 10:22:38;;;;;;;0.30;0.30;;;11.60;42.10;;;;;;5033567;28;20190;-70
2022/01/27 10:25:10;;;;;;;0.80;0.80;;;12.70;39.60;;;;;;5033345;28;20185;-69
2022/01/27 10:30:36;;;;;;;0.53;0.53;;;13.80;35.10;;;;;;5033264;28;20183;-70
2022/01/27 10:33:03;;;;;;;0.93;0.93;;;14.40;34.90;;;;;;5033069;28;20840;-71
2022/01/27 10:35:30;;;;;;;0.30;0.30;;;14.70;33.40;;;;;;5033531;28;20429;-70
2022/01/27 10:37:55;;;;;;;0.40;0.40;;;15.00;33.10;;;;;;5033450;28;20441;-70
2022/01/27 10:40:50;;;;;;;0.40;0.40;;;15.20;32.80;;;;;;5033271;28;20417;-71
2022/01/27 10:43:22;;;;;;;0.40;0.40;;;15.40;32.80;;;;;;5033043;28;20190;-70
2022/01/27 10:46:22;;;;;;;1.57;1.47;;;15.80;31.50;;;;;;5033436;28;20436;-70
2022/01/27 10:49:01;;;;;;;0.30;0.30;;;15.50;31.80;;;;;;5033015;28;20761;-71
2022/01/27 10:51:32;;;;;;;0.30;0.30;;;15.60;30.60;;;;;;5033309;28;20456;-71
2022/01/27 10:54:07;;;;;;;0.53;0.53;;;15.80;31.30;;;;;;5036492;28;20429;-71
2022/01/27 10:56:35;;;;;;;0.63;0.63;;;15.60;31.70;;;;;;5037313;28;20451;-70
2022/01/27 10:59:04;;;;;;;0.40;0.40;;;15.60;30.10;;;;;;5036832;28;20409;-67
2022/01/27 11:01:33;;;;;;;1.13;1.03;;;15.50;29.80;;;;;;5037767;28;20402;-70
2022/01/27 11:04:03;;;;;;;0.77;0.77;;;15.60;30.20;;;;;;5036443;28;20508;-72
2022/01/27 11:06:31;;;;;;;0.30;0.30;;;15.50;30.10;;;;;;5037498;28;20475;-73
2022/01/27 11:09:00;;;;;;;0.30;0.30;;;15.40;29.10;;;;;;5036951;28;20401;-68
2022/01/27 11:11:27;;;;;;;0.40;0.40;;;14.90;29.40;;;;;;5036698;28;20455;-70
2022/01/27 11:13:55;;;;;;;0.30;0.30;;;14.60;30.80;;;;;;5037115;28;20484;-69
2022/01/27 11:16:28;;;;;;;0.63;0.63;;;14.30;33.60;;;;;;5037436;28;20455;-70
2022/01/27 11:19:01;;;;;;;0.30;0.30;;;13.60;31.70;;;;;;5036730;28;20409;-69
2022/01/27 11:21:36;;;;;;;1.00;0.87;;;13.20;32.60;;;;;;5035553;28;20421;-70
2022/01/27 11:24:14;;;;;;;0.40;0.40;;;12.50;32.50;;;;;;5036976;28;20459;-69
2022/01/27 11:26:43;;;;;;;0.30;0.30;;;11.70;32.40;;;;;;5037200;28;20182;-68
2022/01/27 11:29:10;;;;;;;0.30;0.30;;;11.30;34.00;;;;;;5035859;28;20232;-69
2022/01/27 11:31:57;;;;;;;0.50;0.50;;;10.90;34.90;;;;;;5035070;28;20203;-67
2022/01/27 11:34:42;;;;;;;0.30;0.30;;;10.90;34.60;;;;;;5036288;28;20313;-68
2022/01/27 11:37:08;;;;;;;0.30;0.30;;;10.30;35.80;;;;;;5036169;28;20171;-69
2022/01/27 11:39:52;;;;;;;0.30;0.30;;;10.20;36.20;;;;;;5034973;28;20180;-69
2022/01/27 11:42:37;;;;;;;0.30;0.30;;;10.10;36.70;;;;;;5036701;28;20171;-69
2022/01/27 11:45:26;;;;;;;0.30;0.30;;;10.00;36.40;;;;;;5036818;28;20167;-69
2022/01/27 11:47:58;;;;;;;0.30;0.30;;;10.40;35.80;;;;;;5036303;28;20186;-69
2022/01/27 11:50:36;;;;;;;0.30;0.30;;;10.70;35.10;;;;;;5035876;28;20251;-69
2022/01/27 11:53:04;;;;;;;0.30;0.30;;;10.70;34.80;;;;;;5035876;28;20575;-70
2022/01/27 11:55:44;;;;;;;0.30;0.30;;;10.90;35.10;;;;;;5035767;28;20163;-69
2022/01/27 11:58:21;;;;;;;0.30;0.30;;;11.00;37.20;;;;;;5035939;28;20175;-69
2022/01/27 12:01:03;;;;;;;0.30;0.30;;;11.00;35.10;;;;;;5036205;28;20186;-69
2022/01/27 12:03:30;;;;;;;0.38;0.38;;;11.20;34.40;;;;;;5035495;28;20194;-69
2022/01/27 12:06:15;;;;;;;0.40;0.40;;;11.10;35.50;;;;;;5035307;28;20198;-70
2022/01/27 12:08:41;;;;;;;0.30;0.30;;;11.10;36.10;;;;;;5035832;28;20250;-70
2022/01/27 12:11:10;;;;;;;0.30;0.30;;;11.20;34.40;;;;;;5035428;28;20202;-68
2022/01/27 12:13:41;;;;;;;0.30;0.30;;;11.20;33.10;;;;;;5035364;28;20445;-69
2022/01/27 12:19:10;;;;;;;0.30;0.30;;;10.70;35.60;;;;;;5035230;28;20170;-70
2022/01/27 12:21:51;;;;;;;0.30;0.30;;;10.50;37.60;;;;;;5035513;28;20205;-69
2022/01/27 12:24:22;;;;;;;0.30;0.30;;;10.00;37.30;;;;;;5035424;28;20789;-69
2022/01/27 12:26:59;;;;;;;0.30;0.30;;;9.80;38.50;;;;;;5035669;28;20551;-70
2022/01/27 12:29:55;;;;;;;0.40;0.40;;;9.40;39.20;;;;;;5033548;28;20178;-66
2022/01/27 12:32:26;;;;;;;0.30;0.30;;;8.70;38.80;;;;;;5030542;28;20623;-71
2022/01/27 12:34:56;;;;;;;0.40;0.40;;;8.60;39.90;;;;;;5035175;28;20646;-67
2022/01/27 12:37:24;;;;;;;0.35;0.35;;;8.50;40.40;;;;;;5034780;28;20170;-65
2022/01/27 12:39:52;;;;;;;0.30;0.30;;;8.40;41.70;;;;;;5035035;28;20173;-66
2022/01/27 12:42:19;;;;;;;0.30;0.30;;;8.30;42.30;;;;;;5035256;28;20725;-68
2022/01/27 12:45:05;;;;;;;0.40;0.40;;;7.80;43.40;;;;;;5035077;28;20180;-68
2022/01/27 12:47:32;;;;;;;0.30;0.30;;;7.50;44.10;;;;;;5035727;28;20310;-65
2022/01/27 12:50:04;;;;;;;0.40;0.40;;;7.40;44.40;;;;;;5034913;28;20178;-66
2022/01/27 12:52:37;;;;;;;0.40;0.40;;;7.10;44.20;;;;;;5034972;28;20195;-67
2022/01/27 12:55:04;;;;;;;0.40;0.40;;;7.10;45.20;;;;;;5035430;28;20158;-66
2022/01/27 12:57:32;;;;;;;0.85;0.85;;;7.10;46.60;;;;;;5035100;28;20250;-68
2022/01/27 12:59:59;;;;;;;0.40;0.40;;;7.10;46.00;;;;;;5035337;28;20174;-71
2022/01/27 13:02:27;;;;;;;0.40;0.40;;;6.90;47.40;;;;;;5033665;28;20175;-69
2022/01/27 13:04:55;;;;;;;0.40;0.40;;;6.80;48.50;;;;;;5034822;28;20225;-71
2022/01/27 13:07:22;;;;;;;0.40;0.40;;;6.60;48.40;;;;;;5033641;28;20580;-70
2022/01/27 13:10:05;;;;;;;0.40;0.40;;;6.60;47.80;;;;;;5034801;28;20171;-70
2022/01/27 13:12:39;;;;;;;0.40;0.40;;;6.50;48.50;;;;;;5033647;28;20690;-68
2022/01/27 13:15:10;;;;;;;0.50;0.50;;;6.40;48.00;;;;;;5033586;28;20159;-69
2022/01/27 13:20:25;;;;;;;0.40;0.40;;;6.10;48.10;;;;;;5034588;28;20675;-70
2022/01/27 13:23:01;;;;;;;0.40;0.40;;;5.90;48.70;;;;;;5034987;28;20191;-68
2022/01/27 13:25:53;;;;;;;0.40;0.40;;;5.90;49.10;;;;;;5035057;28;20166;-68
2022/01/27 13:28:25;;;;;;;0.40;0.40;;;5.90;49.30;;;;;;5034547;28;20167;-70
2022/01/27 13:31:12;;;;;;;0.40;0.40;;;5.90;49.20;;;;;;5034663;28;20182;-69
2022/01/27 13:33:46;;;;;;;0.40;0.40;;;5.90;48.60;;;;;;5034126;28;20248;-67
2022/01/27 13:36:21;;;;;;;0.30;0.30;;;5.90;47.90;;;;;;5034472;28;20237;-70
2022/01/27 13:39:13;;;;;;;0.30;0.30;;;5.80;47.80;;;;;;5033334;28;20166;-69
2022/01/27 13:41:41;;;;;;;0.40;0.40;;;5.70;48.00;;;;;;5034516;28;20175;-71
2022/01/27 13:44:09;;;;;;;0.40;0.40;;;5.70;48.00;;;;;;5033934;28;20256;-68
2022/01/27 13:46:38;;;;;;;1.25;1.25;;;5.80;47.60;;;;;;5034225;28;20171;-68
2022/01/27 13:49:19;;;;;;;0.40;0.40;;;5.60;45.90;;;;;;5033841;28;20257;-70
2022/01/27 13:52:13;;;;;;;0.40;0.40;;;5.50;45.50;;;;;;5034194;28;20202;-72
2022/01/27 13:54:40;;;;;;;0.40;0.40;;;6.00;83.30;;;;;;5030456;28;20241;-69
2022/01/27 13:57:19;;;;;;;0.40;0.40;;;6.50;52.30;;;;;;5034050;28;20170;-70
2022/01/27 13:59:58;;;;;;;0.40;0.40;;;6.70;46.70;;;;;;5033981;28;20221;-69
2022/01/27 14:02:29;;;;;;;0.40;0.40;;;6.60;46.10;;;;;;5033947;28;20211;-68
2022/01/27 14:05:01;;;;;;;0.40;0.40;;;6.40;46.50;;;;;;5033131;28;20182;-69
2022/01/27 14:07:30;;;;;;;0.40;0.40;;;6.10;46.30;;;;;;5033551;28;20220;-68